Alle Lego-Sets mit ein Set Nummer von 41000 zu 42000

Sortieren nach
Set TitelPreisDifferenzHinzugefügt
Jetboot Vergnügen (41000)5,49 €- 0,50 € (8%)2012-12-17
Stephanies großer Auftritt (41004)24,95 €+ 4,96 € (25%)2012-12-17
Stephanie's Soccer Practice (41011)14,95 €+ 4,96 € (50%)2012-12-17
Parrot’s Perch (41024)11,38 €+ 7,39 € (185%)2013-10-06
Stephanies kleines Lämmchen (41029)9,95 €- 0,04 € (0%)2013-12-27
Erste Hilfe Dschungel-Bike (41032)15,99 €+ 1,00 € (7%)2014-05-31
Adventskalender (41040)19,95 €- 5,04 € (20%)2014-09-02
Schildkrötenparadies (41041)3,25 €- 1,24 € (28%)2013-12-27
Tigertempel (41042)17,98 €+ 13,49 € (300%)2013-12-27
Papageiengarten (41044)4,95 €+ 0,46 € (10%)2014-05-14
Braunbär am Fluss (41046)4,95 €+ 0,46 € (10%)2014-05-14
Panda-Bambusspielplatz (41049)3,25 €- 1,24 € (28%)2014-09-02
Rapunzels Turm der Kreativität (41054)40,03 €- 4,96 € (11%)2014-03-01
Heartlake Einkaufszentrum (41058)89,95 €- 10,04 € (10%)2014-05-31
Rapunzels perfekter Tag (41065)14,87 €- 10,12 € (40%)2016-05-26
Annas und Kristoffs Schlittenabenteuer (41066)21,25 €- 8,74 € (29%)2015-12-04
Belles bezauberndes Schloss (41067)38,88 €- 11,11 € (22%)2016-05-26
Fest im großen Schloss von Arendelle (41068)40,04 €- 19,95 € (33%)2015-12-04
Korallinas Tag am Pool (41069)6,95 €- 1,04 € (13%)2015-12-15
Airas Erfinderwerkstatt (41071)9,99 €--2015-03-01
Das mystische Elfenversteck (41075)52,99 €+ 3,00 € (6%)2015-03-01
Airas Pegasus-Schlitten (41077)36,95 €- 3,04 € (8%)2015-06-01
Heartlake Leuchtturm (41094)41,99 €+ 2,00 € (5%)2014-12-25
Emmas Familienhaus (41095)61,99 €- 8,00 € (11%)2014-12-25
Heartlake Heißluftballon (41097)24,99 €- 5,00 € (17%)2014-12-25
Emmas Kiosk (41098)7,95 €- 2,04 € (20%)2015-06-01
Heartlake Skatepark (41099)16,99 €- 3,00 € (15%)2015-06-01
Heartlake Jet (41100)34,99 €+ 10,00 € (40%)2015-06-01
Heartlake Großes Hotel (41101)88,08 €- 41,91 € (32%)2015-06-01
LEGO® Friends Adventskalender (41102)19,95 €- 0,04 € (0%)2015-09-01
Popstar Aufnahmestudio (41103)11,95 €- 3,04 € (20%)2015-06-01
Popstar Showbühne (41105)41,95 €- 3,04 € (7%)2015-06-01
Popstar Tourbus (41106)42,95 €- 17,04 € (28%)2015-06-01
Popstar Limousine (41107)39,99 €+ 15,00 € (60%)2015-06-01
Heartlake Lebensmittelmarkt (41108)35,99 €- 4,00 € (10%)2015-06-01
Heartlake Flughafen (41109)79,99 €- 10,00 € (11%)2015-06-01
Geburtstagsparty (41110)15,95 €- 4,04 € (20%)2015-12-15
Partyzug (41111)7,95 €- 2,04 € (20%)2015-12-15
Partykuchen (41112)4,25 €- 0,74 € (15%)2015-12-15
Party-Geschenkeladen (41113)3,95 €- 1,04 € (21%)2015-12-15
Partystyling (41114)3,95 €- 1,04 € (21%)2015-12-15
Emmas Erfinderwerkstatt (41115)7,95 €- 2,04 € (20%)2015-12-19
Olivias Expeditionsauto (41116)14,95 €- 0,04 € (0%)2015-12-19
Popstar TV-Studio (41117)16,95 €- 8,04 € (32%)2015-12-19
Heartlake Supermarkt (41118)26,99 €- 8,00 € (23%)2015-12-19
Heartlake Cupcake-Café (41119)29,98 €- 10,01 € (25%)2015-12-19
Abenteuercamp Bogenschießen (41120)7,99 €- 2,00 € (20%)2015-12-15
Abenteuercamp Rafting (41121)26,98 €- 3,01 € (10%)2015-12-15
Abenteuercamp Baumhaus (41122)39,99 €- 30,00 € (43%)2015-12-15
Waschhäuschen für Emmas Fohlen (41123)5,72 €- 4,27 € (43%)2016-05-29
Heartlake Welpen-Betreuung (41124)23,25 €- 6,74 € (22%)2016-05-27
Pferdeanhänger und Tierärztin (41125)29,89 €- 10,10 € (25%)2016-05-27
Heartlake Reiterhof (41126)48,78 €- 16,21 € (25%)2016-05-27
Spielspaß im Freizeitpark (41127)10,24 €- 4,75 € (32%)2016-05-27
Raketen-Karussell (41128)13,57 €- 6,42 € (32%)2016-05-27
Hot-Dog-Stand im Freizeitpark (41129)18,22 €- 11,77 € (39%)2016-05-27
Großer Freizeitpark (41130)64,98 €- 35,01 € (35%)2016-05-27
LEGO® Friends Adventskalender 2016 (41131)16,99 €- 3,00 € (15%)2016-08-31
Heartlake Partyladen (41132)29,95 €- 0,04 € (0%)2016-05-29
Autoscooter im Freizeitpark (41133)27,44 €- 12,55 € (31%)2016-05-29
Niedrigsten PreisHeartlake Kunstschule (41134)79,99 €--2016-05-29
Daisys Schönheitssalon (41140)7,16 €- 2,83 € (28%)2015-12-15
Ballerines Königskutsche (41141)9,50 €- 0,49 € (5%)2015-12-15
Königliches Schloss der Palasttiere (41142)15,95 €- 4,04 € (20%)2015-12-19
Berrys Küche (41143)5,10 €- 1,89 € (27%)2016-12-01
Suzettes Reitanlage (41144)8,00 €- 1,99 € (20%)2016-12-01
Arielle und der Zauberspruch (41145)22,51 €- 7,48 € (25%)2017-05-20
Cinderellas zauberhafter Abend (41146)30,45 €- 9,54 € (24%)2017-05-20
Annas eisiges Abenteuer (41147)15,44 €- 4,55 € (23%)2016-12-01
Elsas magischer Eispalast (41148)49,76 €- 20,23 € (29%)2016-12-01
Vaianas Abenteuerinsel (41149)22,51 €- 7,48 € (25%)2016-12-01
Vaiana auf hoher See (41150)30,32 €- 9,67 € (24%)2016-12-01
Niedrigsten PreisAbenteuer mit dem Wasserdrachen (41172)12,99 €- 12,00 € (48%)2016-03-01
Lavahöhle des Feuerdrachens (41175)31,19 €- 8,80 € (22%)2016-03-01
Der geheime Marktplatz (41176)56,95 €- 3,04 € (5%)2016-03-01
Die kostbare Kristallmine (41177)19,95 €- 5,04 € (20%)2016-05-26
Rettung der Drachenkönigin (41179)49,71 €- 20,28 € (29%)2016-05-26
Raganas magisches Schattenschloss (41180)62,89 €- 27,10 € (30%)2016-05-26
Niedrigsten PreisNaidas Gondel und der diebische Kobold (41181)5,64 €- 4,35 € (44%)2017-03-01
Niedrigsten PreisDie Gefangennahme von Sophie Jones (41182)12,68 €- 7,31 € (37%)2017-03-01
Der böse Drache des Kobold-Königs (41183)22,51 €- 7,48 € (25%)2017-03-01
Airas Luftschiff und die Jagd nach dem Amulett (41184)29,98 €- 10,01 € (25%)2017-03-01
Magische Rettung aus dem Kobold-Dorf (41185)39,69 €- 20,30 € (34%)2017-03-01
Niedrigsten PreisAzari und die Flucht aus dem Kobold-Wald (41186)16,95 €- 3,04 € (15%)2017-05-20
Niedrigsten PreisRosalyns heilendes Versteck (41187)41,95 €- 8,04 € (16%)2017-05-20
Niedrigsten PreisAusbruch aus der Festung des Kobold-Königs (41188)64,95 €- 5,04 € (7%)2017-05-20
Batgirl™ auf den Fersen des Batjets (41230)17,17 €- 7,82 € (31%)2016-12-01
Harley Quinn™ eilt zu Hilfe (41231)21,99 €- 8,00 € (27%)2016-12-01
Highschool der Super Heroes (41232)56,70 €- 23,29 € (29%)2016-12-01
Lashinas Action-Cruiser (41233)10,99 €- 4,00 € (27%)2016-12-01
Bumblebees™ Hubschrauber (41234)10,77 €- 4,22 € (28%)2016-12-01
Wonder Womans™ Schlafgemach (41235)14,99 €- 5,00 € (25%)2016-12-01
Niedrigsten PreisDas Zuhause von Harley Quinn™ (41236)16,95 €- 3,04 € (15%)2017-05-24
Niedrigsten PreisDas Geheimversteck von Batgirl™ (41237)37,95 €- 7,04 € (16%)2017-05-24
Niedrigsten PreisDie Kryptomite™-Fabrik von Lena Luthor™ (41238)47,37 €- 12,62 € (21%)2017-05-24
Der dunkle Palast von Eclipso™ (41239)94,95 €- 5,04 € (5%)2017-05-24
Welpen-Meisterschaft (41300)14,43 €- 5,56 € (28%)2016-12-01
Welpenparade (41301)11,98 €- 3,01 € (20%)2016-12-01
Welpensalon (41302)3,95 €- 1,04 € (21%)2016-12-01
Welpenspielplatz (41303)3,43 €- 1,56 € (31%)2016-12-01
Welpenpark (41304)3,95 €- 1,04 € (21%)2016-12-01
Emmas Fotostudio (41305)7,95 €- 2,04 € (20%)2016-12-01
Mias Strandroller (41306)7,95 €- 2,04 € (20%)2016-12-01
Olivias Erfinderlabor (41307)7,95 €- 2,04 € (20%)2016-12-01
Stephanies Backstube (41308)7,79 €- 2,20 € (22%)2016-12-01
Niedrigsten PreisAndreas Showbühne (41309)7,95 €- 2,04 € (20%)2016-12-01
Heartlake Geschenkeservice (41310)15,95 €- 4,04 € (20%)2016-12-01
Heartlake Pizzeria (41311)19,03 €- 10,96 € (37%)2016-12-01
Heartlake Sportzentrum (41312)28,48 €- 11,51 € (29%)2016-12-01
Heartlake Freibad (41313)34,88 €- 15,11 € (30%)2016-12-01
Stephanies Haus (41314)49,89 €- 20,10 € (29%)2016-12-01
Niedrigsten PreisHeartlake Surfladen (41315)15,99 €- 4,00 € (20%)2017-05-20
Niedrigsten PreisAndreas Rennboot-Transporter (41316)24,95 €- 5,04 € (17%)2017-05-20
Sonnenschein-Katamaran (41317)59,95 €- 10,04 € (14%)2017-05-20
Niedrigsten PreisHeartlake Krankenhaus (41318)79,95 €- 10,04 € (11%)2017-05-20
Niedrigsten PreisKakaowagen am Wintersportort (41319)21,95 €- 3,04 € (12%)2017-05-20
Niedrigsten PreisHeartlake Joghurteisdiele (41320)39,99 €--2017-05-20
Niedrigsten PreisGeländewagen im Wintersportort (41321)13,95 €- 1,04 € (7%)2017-05-20
Niedrigsten PreisEislaufplatz im Wintersportort (41322)22,99 €- 7,00 € (23%)2017-05-20
Niedrigsten PreisChalet im Wintersportort (41323)31,99 €- 8,00 € (20%)2017-05-20
Niedrigsten PreisSkilift im Wintersportort (41324)49,95 €- 10,04 € (17%)2017-05-20
Gox (41536)6,95 €+ 2,96 € (74%)2015-06-01
Jinky (41537)6,95 €+ 2,96 € (74%)2015-06-01
Kamzo (41538)6,95 €+ 2,96 € (74%)2015-06-01
Spugg (41542)6,95 €+ 2,96 € (74%)2015-06-01
Turg (41543)6,95 €+ 2,96 € (74%)2015-06-01
Tungster (41544)6,95 €+ 2,96 € (74%)2015-06-01
Kuffs (41554)3,95 €- 0,04 € (1%)2016-01-31
Busto (41555)3,95 €- 0,04 € (1%)2016-01-31
Niedrigsten PreisGobbol (41572)3,95 €- 0,04 € (1%)2016-10-01
Niedrigsten PreisSweepz (41573)3,95 €- 0,04 € (1%)2016-10-01
Niedrigsten PreisCompax (41574)3,95 €- 0,04 € (1%)2016-10-01
Niedrigsten PreisCobrax (41575)3,95 €- 0,04 € (1%)2016-10-01
Niedrigsten PreisSpinza (41576)3,95 €- 0,04 € (1%)2016-10-01
Niedrigsten PreisMysto (41577)3,95 €- 0,04 € (1%)2016-10-01
Niedrigsten PreisCamsta (41579)3,95 €- 0,04 € (1%)2016-10-01
Niedrigsten PreisMyke (41580)3,95 €- 0,04 € (1%)2016-10-01
Niedrigsten PreisBatman™ (41585)7,95 €- 2,04 € (20%)2017-02-01
Niedrigsten PreisBatgirl™ (41586)9,99 €--2017-02-01
Niedrigsten PreisRobin™ (41587)9,99 €--2017-02-01
The Joker™ (41588)8,95 €- 1,04 € (10%)2017-02-01
Niedrigsten PreisCaptain America (41589)9,45 €- 0,54 € (5%)2017-02-01
Iron Man (41590)8,95 €- 1,04 € (10%)2017-02-01
Niedrigsten PreisBlack Widow (41591)9,99 €--2017-02-01
Niedrigsten PreisThe Hulk (41592)7,99 €- 2,00 € (20%)2017-02-01
Niedrigsten PreisCaptain Jack Sparrow (41593)7,95 €- 2,04 € (20%)2017-02-24
Niedrigsten PreisCaptain Armando Salazar (41594)8,95 €- 1,04 € (10%)2017-02-24
Niedrigsten PreisBelle (41595)7,99 €- 2,00 € (20%)2017-02-03
Beast (41596)9,99 €--2017-02-03
4x4 Crawler Exclusive Edition (41999)749,99 €+ 570,00 € (317%)2013-08-01

Auch nicht verfügbar Sets zeigen